Time;durP1;ratioP1;P1;durP2;ratioP2;P2;SDS_P1;SDS_P2;PMS_P1;PMS_P2;Temp;Humidity;BMP_temperature;BMP_pressure;BME280_temperature;BME280_humidity;BME280_pressure;Samples;Min_cycle;Max_cycle;Signal;HPM_P1;HPM_P2
2022/06/20 00:01:57;;;;;;;12.65;2.15;;;12.90;99.90;;;;;;5072967;28;20130;-51
2022/06/20 00:04:22;;;;;;;8.15;1.67;;;13.20;99.90;;;;;;5073844;28;20032;-48
2022/06/20 00:06:48;;;;;;;7.63;1.98;;;13.50;99.90;;;;;;5073901;28;20048;-49
2022/06/20 00:09:14;;;;;;;9.02;2.05;;;12.90;99.90;;;;;;5073097;28;20043;-49
2022/06/20 00:11:45;;;;;;;9.48;1.50;;;13.90;99.90;;;;;;5072988;28;20053;-47
2022/06/20 00:14:19;;;;;;;8.20;1.45;;;13.00;99.90;;;;;;5073614;28;20515;-51
2022/06/20 00:16:46;;;;;;;9.23;1.60;;;12.80;99.90;;;;;;5074445;28;20040;-50
2022/06/20 00:19:12;;;;;;;8.15;1.73;;;14.10;99.90;;;;;;5072518;28;20457;-50
2022/06/20 00:21:39;;;;;;;10.02;1.63;;;13.00;99.90;;;;;;5075067;28;20064;-50
2022/06/20 00:24:05;;;;;;;10.40;1.70;;;13.80;99.90;;;;;;5073720;28;20067;-52
2022/06/20 00:26:32;;;;;;;9.85;1.90;;;12.90;99.90;;;;;;5075123;28;20523;-48
2022/06/20 00:29:01;;;;;;;9.15;1.70;;;12.80;99.90;;;;;;5073768;28;20047;-52
2022/06/20 00:31:27;;;;;;;8.32;1.52;;;15.00;99.90;;;;;;5074020;28;20040;-49
2022/06/20 00:33:52;;;;;;;10.07;1.90;;;14.00;99.90;;;;;;5073479;28;20179;-47
2022/06/20 00:36:18;;;;;;;6.22;1.38;;;13.20;99.90;;;;;;5072997;28;20051;-50
2022/06/20 00:38:46;;;;;;;11.02;1.65;;;13.60;99.90;;;;;;5074420;28;20055;-48
2022/06/20 00:41:18;;;;;;;10.93;1.65;;;14.00;99.90;;;;;;5073333;28;20830;-47
2022/06/20 00:43:49;;;;;;;7.57;1.90;;;12.80;99.90;;;;;;5074205;28;20050;-49
2022/06/20 00:46:40;;;;;;;7.07;1.90;;;12.80;99.90;;;;;;5074577;28;20468;-49
2022/06/20 00:49:26;;;;;;;6.90;1.52;;;12.70;99.90;;;;;;5072901;28;20056;-49
2022/06/20 00:52:14;;;;;;;9.35;1.92;;;12.80;99.90;;;;;;5071571;28;20113;-48
2022/06/20 00:54:48;;;;;;;9.20;1.65;;;12.80;99.90;;;;;;5072834;28;20097;-50
2022/06/20 00:57:35;;;;;;;6.47;2.10;;;14.90;99.90;;;;;;5071853;28;20512;-50
2022/06/20 01:00:15;;;;;;;7.68;2.28;;;12.60;99.90;;;;;;5072318;28;20046;-51
2022/06/20 01:02:47;;;;;;;7.68;1.65;;;12.50;99.90;;;;;;5072814;28;20040;-50
2022/06/20 01:05:21;;;;;;;8.15;1.52;;;12.50;99.90;;;;;;5072605;28;20137;-52
2022/06/20 01:07:56;;;;;;;7.03;1.48;;;12.50;99.90;;;;;;5071932;28;20374;-51
2022/06/20 01:10:25;;;;;;;7.88;1.40;;;12.40;99.90;;;;;;5072235;28;20035;-51
2022/06/20 01:12:56;;;;;;;7.22;1.67;;;14.10;99.90;;;;;;5072531;28;20047;-50
2022/06/20 01:15:24;;;;;;;7.63;1.50;;;12.30;99.90;;;;;;5072918;28;20776;-48
2022/06/20 01:17:53;;;;;;;7.57;1.60;;;12.30;99.90;;;;;;5072185;28;20078;-52
2022/06/20 01:20:23;;;;;;;5.13;1.30;;;12.30;99.90;;;;;;5071921;28;20983;-49
2022/06/20 01:22:51;;;;;;;8.50;2.33;;;12.10;99.90;;;;;;5073168;28;20113;-51
2022/06/20 01:25:32;;;;;;;6.07;2.35;;;12.20;99.90;;;;;;5071902;28;20048;-51
2022/06/20 01:27:59;;;;;;;7.90;1.85;;;11.90;99.90;;;;;;5071935;28;20249;-49
2022/06/20 01:30:32;;;;;;;8.88;1.75;;;12.50;99.90;;;;;;5072043;28;20790;-51
2022/06/20 01:33:00;;;;;;;7.80;1.73;;;11.80;99.90;;;;;;5071713;28;20524;-50
2022/06/20 01:38:14;;;;;;;6.05;1.60;;;11.80;99.90;;;;;;5072983;28;20085;-52
2022/06/20 01:42:18;;;;;;;10.70;3.17;;;11.80;99.90;;;;;;5072344;28;20052;-52
2022/06/20 01:43:30;;;;;;;12.45;1.92;;;12.10;99.90;;;;;;5072617;28;20113;-50
2022/06/20 01:46:00;;;;;;;7.95;1.65;;;11.60;99.90;;;;;;5078756;28;20586;-49
2022/06/20 01:48:30;;;;;;;8.23;2.00;;;11.50;99.90;;;;;;5078879;28;20055;-52
2022/06/20 01:50:57;;;;;;;6.32;1.83;;;11.40;99.90;;;;;;5078269;28;20129;-52
2022/06/20 01:53:29;;;;;;;12.80;2.30;;;11.60;99.90;;;;;;5078860;28;20795;-50
2022/06/20 01:55:56;;;;;;;8.43;1.48;;;11.50;99.90;;;;;;5079489;28;20408;-50
2022/06/20 01:58:39;;;;;;;8.32;1.63;;;11.60;99.90;;;;;;5079056;28;20041;-50
2022/06/20 02:01:05;;;;;;;8.45;1.50;;;11.60;99.90;;;;;;5079289;28;20036;-50
2022/06/20 02:03:35;;;;;;;6.80;1.73;;;11.70;99.90;;;;;;5079412;28;20035;-50
2022/06/20 02:06:03;;;;;;;8.95;1.45;;;12.30;99.90;;;;;;5078735;28;20861;-48
2022/06/20 02:08:31;;;;;;;4.57;1.63;;;13.00;99.90;;;;;;5077945;28;20055;-46
2022/06/20 02:11:06;;;;;;;5.35;1.30;;;12.90;99.90;;;;;;5079643;28;20034;-52
2022/06/20 02:13:36;;;;;;;7.47;1.65;;;12.00;99.90;;;;;;5079444;28;20031;-51
2022/06/20 02:16:06;;;;;;;11.00;1.67;;;13.80;99.90;;;;;;5080085;28;20669;-49
2022/06/20 02:18:35;;;;;;;13.90;1.35;;;12.00;99.90;;;;;;5080469;28;20409;-50
2022/06/20 02:21:05;;;;;;;7.15;1.63;;;12.20;99.90;;;;;;5079967;28;20044;-49
2022/06/20 02:23:35;;;;;;;8.90;1.70;;;12.10;99.90;;;;;;5079512;28;20058;-50
2022/06/20 02:26:04;;;;;;;7.45;1.70;;;14.00;99.90;;;;;;5080064;28;20043;-48
2022/06/20 02:28:48;;;;;;;6.60;1.58;;;11.90;99.90;;;;;;5079384;28;20039;-53
2022/06/20 02:31:15;;;;;;;11.45;1.58;;;13.30;99.90;;;;;;5078793;28;20572;-50
2022/06/20 02:33:42;;;;;;;10.50;1.90;;;12.90;99.90;;;;;;5078657;28;20040;-49
2022/06/20 02:36:08;;;;;;;9.18;1.70;;;11.40;99.90;;;;;;5078728;28;20169;-51
2022/06/20 02:38:36;;;;;;;8.48;2.65;;;11.60;99.90;;;;;;5078189;28;20092;-52
2022/06/20 02:41:02;;;;;;;11.38;2.28;;;12.50;99.90;;;;;;5078433;28;20804;-51
2022/06/20 02:43:43;;;;;;;9.10;2.20;;;12.00;99.90;;;;;;5078125;28;20955;-50
2022/06/20 02:46:12;;;;;;;5.90;1.65;;;11.70;99.90;;;;;;5078835;28;20054;-51
2022/06/20 02:48:42;;;;;;;13.02;2.20;;;11.70;99.90;;;;;;5078092;28;20509;-51
2022/06/20 02:51:10;;;;;;;6.53;1.85;;;12.70;99.90;;;;;;5077674;28;20123;-49
2022/06/20 02:53:42;;;;;;;9.30;1.90;;;11.60;99.90;;;;;;5077871;28;20683;-52
2022/06/20 02:56:14;;;;;;;10.18;2.47;;;11.50;99.90;;;;;;5074755;28;20051;-48
2022/06/20 02:58:44;;;;;;;7.28;2.22;;;11.20;99.90;;;;;;5074713;28;20688;-52
2022/06/20 03:01:42;;;;;;;9.60;1.77;;;11.00;99.90;;;;;;5074886;28;20039;-50
2022/06/20 03:04:10;;;;;;;9.18;1.90;;;11.40;99.90;;;;;;5073336;28;20448;-55
2022/06/20 03:06:42;;;;;;;7.28;2.20;;;11.30;99.90;;;;;;5074104;28;20040;-50
2022/06/20 03:09:11;;;;;;;6.72;1.70;;;11.00;99.90;;;;;;5074452;28;20123;-51
2022/06/20 03:11:39;;;;;;;6.65;2.10;;;10.90;99.90;;;;;;5075082;28;20560;-52
2022/06/20 03:14:07;;;;;;;8.05;2.13;;;10.90;99.90;;;;;;5074455;28;20724;-52
2022/06/20 03:16:35;;;;;;;8.35;2.13;;;10.80;99.90;;;;;;5076163;28;20157;-51
2022/06/20 03:19:02;;;;;;;10.20;1.95;;;10.80;99.90;;;;;;5075125;28;20055;-47
2022/06/20 03:21:33;;;;;;;14.32;2.47;;;10.50;99.90;;;;;;5075887;28;20040;-53
2022/06/20 03:24:01;;;;;;;6.40;1.77;;;10.50;99.90;;;;;;5075263;28;20040;-50
2022/06/20 03:26:27;;;;;;;10.10;2.30;;;10.50;99.90;;;;;;5075601;28;20122;-47
2022/06/20 03:28:54;;;;;;;7.78;1.73;;;10.30;99.90;;;;;;5074771;28;20687;-51
2022/06/20 03:31:20;;;;;;;8.13;2.70;;;11.50;99.90;;;;;;5076367;28;20076;-47
2022/06/20 03:33:47;;;;;;;12.65;2.55;;;10.10;99.90;;;;;;5072932;28;20409;-47
2022/06/20 03:36:26;;;;;;;9.95;2.55;;;10.40;99.90;;;;;;5075043;28;20075;-50
2022/06/20 03:38:53;;;;;;;9.50;2.60;;;10.30;99.90;;;;;;5075599;28;20047;-48
2022/06/20 03:41:23;;;;;;;11.15;3.28;;;10.20;99.90;;;;;;5074928;28;20079;-51
2022/06/20 03:44:04;;;;;;;8.23;2.40;;;10.30;99.90;;;;;;5075113;28;20125;-48
2022/06/20 03:46:37;;;;;;;10.90;3.13;;;10.50;99.90;;;;;;5075286;28;20044;-50
2022/06/20 03:49:30;;;;;;;7.82;2.25;;;10.40;99.90;;;;;;5073034;28;20500;-49
2022/06/20 03:52:05;;;;;;;11.05;3.05;;;8.60;99.90;;;;;;5073916;28;20028;-49
2022/06/20 03:54:39;;;;;;;10.40;2.67;;;10.30;99.90;;;;;;5073796;28;20355;-49
2022/06/20 03:57:11;;;;;;;9.75;2.70;;;10.50;99.90;;;;;;5073875;28;20523;-51
2022/06/20 04:00:00;;;;;;;9.93;2.70;;;10.40;99.90;;;;;;5074643;28;20031;-47
2022/06/20 04:02:58;;;;;;;5.65;2.20;;;10.50;99.90;;;;;;5073121;28;20048;-52
2022/06/20 04:05:40;;;;;;;5.43;2.10;;;10.90;99.90;;;;;;5008540;28;20111;-48
2022/06/20 04:08:24;;;;;;;9.95;2.47;;;10.80;99.90;;;;;;5010087;28;20325;-50
2022/06/20 04:10:59;;;;;;;11.02;2.95;;;10.60;99.90;;;;;;5010127;28;20522;-48
2022/06/20 04:13:33;;;;;;;11.02;2.58;;;11.00;99.90;;;;;;5010806;28;20425;-48
2022/06/20 04:16:16;;;;;;;10.77;2.42;;;10.90;99.90;;;;;;5010857;28;20435;-52
2022/06/20 04:18:58;;;;;;;7.18;2.25;;;10.90;99.90;;;;;;4994080;28;20057;-50
2022/06/20 04:21:56;;;;;;;9.13;3.03;;;11.30;99.90;;;;;;5009697;28;20132;-50
2022/06/20 04:24:24;;;;;;;8.63;2.38;;;11.30;99.90;;;;;;4983406;28;20140;-50
2022/06/20 04:27:15;;;;;;;8.10;3.08;;;12.70;99.90;;;;;;4979986;28;20160;-50
2022/06/20 04:29:48;;;;;;;8.23;2.42;;;12.60;99.90;;;;;;4986250;28;20076;-48
2022/06/20 04:32:27;;;;;;;9.13;2.60;;;11.90;99.90;;;;;;4986137;28;20046;-50
2022/06/20 04:35:00;;;;;;;9.00;2.42;;;11.90;99.90;;;;;;4968276;28;21218;-52
2022/06/20 04:37:53;;;;;;;10.82;2.30;;;12.50;99.90;;;;;;4985482;28;20133;-50
2022/06/20 04:40:31;;;;;;;10.60;2.70;;;12.20;99.90;;;;;;4984465;28;20042;-47
2022/06/20 04:43:08;;;;;;;8.27;2.95;;;13.20;99.90;;;;;;5031879;28;20954;-52
2022/06/20 04:45:49;;;;;;;11.90;2.78;;;12.00;99.90;;;;;;5050758;28;20101;-48
2022/06/20 04:48:18;;;;;;;8.48;2.75;;;12.00;99.90;;;;;;5050158;28;20056;-51
2022/06/20 04:50:48;;;;;;;11.43;2.40;;;12.10;99.90;;;;;;5051002;28;20049;-48
2022/06/20 04:53:20;;;;;;;10.38;2.90;;;12.10;99.90;;;;;;5049924;28;20036;-49
2022/06/20 04:55:50;;;;;;;;;;;13.00;99.90;;;;;;5051634;28;20875;-50
2022/06/20 04:58:20;;;;;;;7.05;2.72;;;11.90;99.90;;;;;;5032996;28;19974;-51
2022/06/20 05:00:49;;;;;;;13.05;2.92;;;12.90;99.90;;;;;;5060382;28;20581;-50
2022/06/20 05:03:22;;;;;;;11.43;2.85;;;13.30;99.90;;;;;;5070922;28;20606;-50
2022/06/20 05:05:51;;;;;;;12.90;2.97;;;12.60;99.90;;;;;;5073326;28;20040;-51
2022/06/20 05:08:24;;;;;;;8.35;3.13;;;12.60;99.90;;;;;;5069726;28;20055;-52
2022/06/20 05:10:55;;;;;;;14.95;2.75;;;12.80;99.90;;;;;;5071222;28;20559;-52
2022/06/20 05:13:29;;;;;;;11.60;2.97;;;13.00;99.90;;;;;;5072110;28;20575;-52
2022/06/20 05:15:55;;;;;;;13.18;3.15;;;13.00;99.90;;;;;;5073559;28;20086;-51
2022/06/20 05:18:44;;;;;;;16.23;3.97;;;13.00;99.90;;;;;;5071572;28;20052;-48
2022/06/20 05:21:20;;;;;;;10.95;2.75;;;13.10;99.90;;;;;;5070166;28;20055;-49
2022/06/20 05:23:51;;;;;;;9.55;2.50;;;13.30;99.90;;;;;;5071590;28;20603;-49
2022/06/20 05:26:29;;;;;;;9.32;2.97;;;13.30;99.90;;;;;;5071307;28;20172;-48
2022/06/20 05:28:57;;;;;;;9.20;2.75;;;13.40;99.90;;;;;;5072764;28;20271;-50
2022/06/20 05:31:45;;;;;;;10.23;2.75;;;13.50;99.90;;;;;;5067608;28;20116;-50
2022/06/20 05:34:30;;;;;;;13.23;3.25;;;15.40;99.90;;;;;;5072136;28;20047;-51
2022/06/20 05:37:03;;;;;;;11.13;2.92;;;13.90;99.90;;;;;;5071565;28;20127;-47
2022/06/20 05:39:48;;;;;;;10.05;2.80;;;14.00;99.90;;;;;;5071175;28;20174;-50
2022/06/20 05:42:16;;;;;;;11.70;3.17;;;14.90;99.90;;;;;;5071888;28;20105;-52
2022/06/20 05:44:44;;;;;;;13.32;3.20;;;14.40;99.90;;;;;;5072122;28;20064;-48
2022/06/20 05:47:35;;;;;;;11.27;3.08;;;16.40;99.90;;;;;;5072116;28;20048;-51
2022/06/20 05:50:35;;;;;;;7.78;3.00;;;14.40;99.90;;;;;;5071215;28;20044;-48
2022/06/20 05:53:04;;;;;;;13.00;2.97;;;14.70;99.90;;;;;;5072948;28;20050;-48
2022/06/20 05:55:38;;;;;;;9.25;2.97;;;14.60;99.90;;;;;;5067143;28;20155;-46
2022/06/20 05:58:06;;;;;;;11.07;2.72;;;14.80;99.90;;;;;;5073261;28;20101;-48
2022/06/20 06:00:34;;;;;;;12.07;3.03;;;16.90;99.90;;;;;;5074216;28;20131;-50
2022/06/20 06:03:09;;;;;;;14.43;3.20;;;14.90;99.90;;;;;;5072015;28;20412;-47
2022/06/20 06:05:58;;;;;;;10.57;3.10;;;15.00;99.90;;;;;;5073429;28;20517;-49
2022/06/20 06:08:29;;;;;;;10.60;2.92;;;15.40;99.90;;;;;;5071616;28;20047;-51
2022/06/20 06:11:04;;;;;;;10.60;2.83;;;17.50;99.90;;;;;;5072808;28;20047;-48
2022/06/20 06:13:48;;;;;;;12.10;3.10;;;15.30;99.90;;;;;;5072073;28;20040;-47
2022/06/20 06:19:43;;;;;;;8.98;2.50;;;16.10;99.90;;;;;;5073306;28;20051;-48
2022/06/20 06:22:32;;;;;;;10.27;2.53;;;16.90;1.00;;;;;;5071603;28;20040;-48
2022/06/20 06:25:06;;;;;;;11.52;2.97;;;17.30;37.50;;;;;;5071370;28;20036;-48
2022/06/20 06:27:34;;;;;;;9.48;2.83;;;17.10;1.00;;;;;;5071298;28;20040;-49
2022/06/20 06:30:07;;;;;;;10.60;3.10;;;19.30;99.90;;;;;;5069545;28;20667;-50
2022/06/20 06:32:58;;;;;;;10.48;2.50;;;17.20;99.90;;;;;;5073111;28;20047;-48
2022/06/20 06:35:35;;;;;;;14.52;2.90;;;16.80;99.90;;;;;;5073463;28;20044;-51
2022/06/20 06:38:32;;;;;;;9.23;2.38;;;16.70;99.90;;;;;;5075650;28;20062;-48
2022/06/20 06:40:59;;;;;;;14.00;2.42;;;16.40;99.90;;;;;;5010062;28;20045;-51
2022/06/20 06:43:37;;;;;;;13.50;2.58;;;18.30;99.90;;;;;;5011855;28;20045;-49
2022/06/20 06:46:11;;;;;;;11.85;3.30;;;18.10;99.90;;;;;;5011468;28;20052;-50
2022/06/20 06:49:14;;;;;;;10.50;2.30;;;17.10;99.90;;;;;;5011476;28;20763;-48
2022/06/20 06:51:51;;;;;;;11.15;2.60;;;15.20;99.90;;;;;;4997570;28;20068;-47
2022/06/20 06:54:46;;;;;;;15.65;2.75;;;16.40;99.90;;;;;;5011758;28;20218;-53
2022/06/20 06:57:26;;;;;;;8.75;3.17;;;16.50;99.90;;;;;;5011743;28;20044;-51
2022/06/20 07:00:26;;;;;;;12.18;3.22;;;17.90;99.90;;;;;;5011516;28;21341;-53
2022/06/20 07:02:59;;;;;;;7.22;2.20;;;18.00;1.00;;;;;;4973154;28;20054;-51
2022/06/20 07:05:34;;;;;;;9.57;2.30;;;18.30;1.00;;;;;;4972254;28;20542;-48
2022/06/20 07:08:16;;;;;;;8.80;2.78;;;18.30;1.00;;;;;;4971229;28;20204;-48
2022/06/20 07:10:55;;;;;;;;;;;19.00;99.90;;;;;;4973015;28;20046;-48
2022/06/20 07:13:35;;;;;;;9.43;2.15;;;18.90;99.90;;;;;;4971965;28;20441;-51
2022/06/20 07:16:11;;;;;;;10.18;2.03;;;19.00;99.90;;;;;;4972380;28;20043;-49
2022/06/20 07:18:51;;;;;;;7.82;1.63;;;19.50;99.90;;;;;;5037328;28;20044;-51
2022/06/20 07:21:21;;;;;;;7.55;1.80;;;20.20;99.90;;;;;;5052752;28;20048;-49
2022/06/20 07:23:53;;;;;;;9.50;2.15;;;21.30;99.90;;;;;;5051829;28;20048;-47
2022/06/20 07:26:21;;;;;;;;;;;22.10;99.90;;;;;;5052683;28;20130;-49
2022/06/20 07:29:02;;;;;;;6.50;1.50;;;23.00;99.90;;;;;;5035749;28;20396;-48
2022/06/20 07:31:43;;;;;;;5.22;1.65;;;23.90;99.90;;;;;;5051325;28;20135;-53
2022/06/20 07:34:32;;;;;;;8.57;1.80;;;24.20;99.90;;;;;;5051529;28;20097;-52
2022/06/20 07:37:09;;;;;;;4.40;1.23;;;25.10;99.90;;;;;;5051459;28;20040;-49
2022/06/20 07:39:54;;;;;;;6.85;1.65;;;25.90;99.90;;;;;;5063601;28;20516;-50
2022/06/20 07:42:35;;;;;;;5.80;1.50;;;25.10;57.60;;;;;;5074146;28;20516;-51
2022/06/20 07:45:14;;;;;;;7.60;1.33;;;24.50;99.90;;;;;;5074895;28;20400;-48
2022/06/20 07:48:01;;;;;;;5.90;1.30;;;24.70;58.60;;;;;;5076166;28;20048;-52
2022/06/20 07:50:34;;;;;;;6.43;1.38;;;24.30;98.90;;;;;;5074854;28;20042;-48
2022/06/20 07:53:21;;;;;;;6.75;1.45;;;23.10;99.90;;;;;;5074473;28;20087;-52
2022/06/20 07:55:52;;;;;;;5.68;1.08;;;22.30;99.90;;;;;;5071564;28;20166;-52
2022/06/20 07:58:26;;;;;;;4.45;1.15;;;22.90;99.90;;;;;;5073553;28;20035;-49
2022/06/20 08:00:53;;;;;;;8.60;1.50;;;23.30;99.90;;;;;;5072609;28;20465;-52
2022/06/20 08:03:47;;;;;;;6.78;1.52;;;23.00;99.90;;;;;;5072766;28;20044;-50
2022/06/20 08:06:32;;;;;;;5.72;1.48;;;22.90;80.00;;;;;;5074096;28;20202;-50
2022/06/20 08:09:20;;;;;;;6.95;1.30;;;22.70;74.40;;;;;;5073816;28;20440;-53
2022/06/20 08:11:59;;;;;;;6.18;1.33;;;22.00;83.90;;;;;;5010483;28;20053;-51
2022/06/20 08:14:39;;;;;;;6.82;1.30;;;21.20;99.90;;;;;;4994706;28;20045;-52
2022/06/20 08:17:08;;;;;;;5.72;1.35;;;21.30;92.40;;;;;;5010091;28;20049;-52
2022/06/20 08:19:36;;;;;;;5.72;1.52;;;21.20;99.90;;;;;;5010094;28;20151;-51
2022/06/20 08:22:32;;;;;;;4.97;1.42;;;20.50;99.90;;;;;;5009526;28;20034;-49
2022/06/20 08:25:02;;;;;;;4.28;1.25;;;19.90;99.90;;;;;;4932139;29;20118;-52
2022/06/20 08:27:38;;;;;;;6.18;1.30;;;20.50;96.50;;;;;;4930926;29;20560;-52
2022/06/20 08:30:13;;;;;;;6.35;1.40;;;21.10;91.20;;;;;;4932412;29;20047;-53
2022/06/20 08:32:41;;;;;;;5.13;1.30;;;21.80;99.90;;;;;;4932696;29;20568;-52
2022/06/20 08:35:07;;;;;;;5.00;1.30;;;22.50;97.20;;;;;;4933467;29;20051;-49
2022/06/20 08:37:48;;;;;;;6.97;1.42;;;22.20;99.70;;;;;;4932598;29;20102;-52
2022/06/20 08:40:19;;;;;;;6.55;1.30;;;22.20;99.90;;;;;;4933025;29;20088;-56
2022/06/20 08:43:09;;;;;;;4.93;1.40;;;22.10;68.50;;;;;;4932131;29;20142;-52
2022/06/20 08:45:57;;;;;;;7.10;1.20;;;21.20;87.10;;;;;;4932741;29;21021;-52
2022/06/20 08:49:00;;;;;;;5.20;1.27;;;20.70;92.30;;;;;;4954990;28;20053;-50
2022/06/20 08:51:34;;;;;;;6.13;1.55;;;20.20;99.90;;;;;;5007456;28;20049;-49
2022/06/20 08:54:11;;;;;;;6.30;1.50;;;20.20;99.90;;;;;;5005372;28;20038;-52
2022/06/20 08:56:59;;;;;;;9.93;1.38;;;21.10;99.90;;;;;;5005593;28;20151;-53
2022/06/20 08:59:38;;;;;;;7.03;1.60;;;21.40;87.20;;;;;;5007007;28;20049;-52
2022/06/20 09:02:22;;;;;;;6.03;1.77;;;22.00;85.60;;;;;;5045172;28;20052;-52
2022/06/20 09:05:18;;;;;;;6.00;1.63;;;22.40;99.90;;;;;;5073149;28;20036;-51
2022/06/20 09:08:26;;;;;;;7.32;1.60;;;22.00;86.50;;;;;;5073935;28;20044;-51
2022/06/20 09:11:16;;;;;;;5.18;1.17;;;21.40;96.60;;;;;;5009407;28;20057;-50
2022/06/20 09:13:54;;;;;;;7.30;1.40;;;20.50;99.90;;;;;;5009710;28;20052;-50
2022/06/20 09:16:25;;;;;;;6.43;1.48;;;19.90;99.90;;;;;;5010493;28;20112;-51
2022/06/20 09:19:21;;;;;;;7.35;1.75;;;18.90;99.90;;;;;;5010683;28;20107;-50
2022/06/20 09:21:49;;;;;;;9.52;2.20;;;18.90;99.90;;;;;;5009407;28;20076;-50
2022/06/20 09:24:27;;;;;;;7.47;1.70;;;18.80;99.90;;;;;;5009177;28;20724;-51
2022/06/20 09:27:15;;;;;;;5.57;2.17;;;18.40;99.90;;;;;;5009472;28;20041;-50
2022/06/20 09:30:22;;;;;;;8.57;1.50;;;18.20;99.90;;;;;;5009455;28;20057;-51
2022/06/20 09:33:15;;;;;;;5.65;1.48;;;17.70;99.90;;;;;;5008358;28;20048;-49
2022/06/20 09:35:54;;;;;;;6.90;1.50;;;17.30;99.90;;;;;;5009518;28;20119;-47
2022/06/20 09:38:46;;;;;;;8.82;1.70;;;19.50;99.90;;;;;;5011260;28;20052;-49
2022/06/20 09:41:28;;;;;;;4.65;1.45;;;17.10;99.90;;;;;;5008354;28;20049;-48
2022/06/20 09:44:56;;;;;;;3.92;1.15;;;17.80;99.90;;;;;;4988302;28;20537;-49
2022/06/20 09:47:50;;;;;;;4.80;1.20;;;18.40;99.90;;;;;;4940845;28;20149;-50
2022/06/20 09:50:46;;;;;;;7.90;1.85;;;18.80;99.90;;;;;;4970347;28;20046;-49
2022/06/20 09:53:22;;;;;;;5.00;1.10;;;19.20;99.90;;;;;;4969499;28;20073;-51
2022/06/20 09:55:55;;;;;;;5.50;1.20;;;19.60;99.90;;;;;;4969377;28;20042;-49
2022/06/20 09:58:30;;;;;;;9.38;2.42;;;21.40;99.90;;;;;;4967668;28;20046;-47
2022/06/20 10:01:06;;;;;;;5.63;1.15;;;20.60;99.90;;;;;;4970816;28;20039;-49
2022/06/20 10:03:59;;;;;;;8.70;1.52;;;19.60;99.90;;;;;;4970536;28;20553;-50
2022/06/20 10:06:48;;;;;;;6.93;1.25;;;19.50;99.90;;;;;;4973149;28;20519;-50
2022/06/20 10:09:32;;;;;;;7.68;1.52;;;19.80;99.90;;;;;;4973401;28;20057;-50
2022/06/20 10:12:21;;;;;;;8.55;1.63;;;20.10;99.90;;;;;;4973836;28;20133;-51
2022/06/20 10:15:17;;;;;;;6.80;1.33;;;19.70;99.90;;;;;;4974460;28;20042;-49
2022/06/20 10:17:56;;;;;;;6.30;1.40;;;20.00;99.90;;;;;;5001319;28;20531;-49
2022/06/20 10:20:43;;;;;;;9.05;2.15;;;20.20;99.90;;;;;;5031586;28;20159;-46
2022/06/20 10:23:16;;;;;;;8.98;2.15;;;20.10;99.90;;;;;;5033766;28;20378;-49
2022/06/20 10:25:57;;;;;;;9.48;1.75;;;20.00;99.90;;;;;;5031045;28;20741;-48
2022/06/20 10:28:40;;;;;;;8.32;2.08;;;20.40;99.90;;;;;;5033601;28;20044;-46
2022/06/20 10:31:32;;;;;;;11.63;1.45;;;20.10;99.90;;;;;;5031365;28;20033;-46
2022/06/20 10:34:24;;;;;;;9.23;1.67;;;19.80;99.90;;;;;;5012306;28;20114;-49
2022/06/20 10:37:19;;;;;;;9.02;1.90;;;19.50;99.90;;;;;;5009783;28;20058;-49
2022/06/20 10:40:00;;;;;;;8.65;1.70;;;19.90;99.90;;;;;;4934052;28;20063;-48
2022/06/20 10:42:59;;;;;;;9.13;1.88;;;20.30;99.90;;;;;;4942519;28;20062;-48
2022/06/20 10:45:59;;;;;;;9.85;1.90;;;20.00;99.90;;;;;;4953407;28;20070;-52
2022/06/20 10:48:55;;;;;;;8.48;1.70;;;19.80;99.90;;;;;;4953056;28;20047;-48
2022/06/20 10:51:20;;;;;;;6.03;1.70;;;19.50;99.90;;;;;;4951584;28;20043;-50
2022/06/20 10:54:02;;;;;;;6.35;1.50;;;20.00;99.90;;;;;;4953565;28;20414;-46
2022/06/20 10:56:32;;;;;;;7.57;1.73;;;20.10;99.90;;;;;;4953979;28;20519;-48
2022/06/20 10:59:25;;;;;;;6.13;1.60;;;20.30;99.90;;;;;;4953728;28;20649;-51
2022/06/20 11:01:58;;;;;;;9.15;2.03;;;20.50;99.90;;;;;;4953238;28;20885;-50
2022/06/20 11:04:38;;;;;;;8.48;2.10;;;20.80;99.90;;;;;;4951931;28;20652;-50
2022/06/20 11:07:40;;;;;;;6.40;1.50;;;20.80;99.90;;;;;;4952130;28;20073;-49
2022/06/20 11:10:11;;;;;;;8.98;2.10;;;21.10;99.90;;;;;;4956656;28;20546;-48
2022/06/20 11:13:09;;;;;;;9.05;2.13;;;21.30;99.90;;;;;;4991507;28;20552;-47
2022/06/20 11:16:09;;;;;;;8.50;1.52;;;20.80;99.90;;;;;;4991136;28;20104;-48
2022/06/20 11:19:02;;;;;;;5.78;1.60;;;20.40;99.90;;;;;;4990574;28;21158;-46
2022/06/20 11:22:01;;;;;;;8.77;1.52;;;19.80;99.90;;;;;;4990934;28;20111;-46
2022/06/20 11:25:01;;;;;;;8.00;1.90;;;19.30;99.90;;;;;;4990184;28;20579;-45
2022/06/20 11:27:47;;;;;;;8.30;1.70;;;19.40;99.90;;;;;;4990731;28;20034;-46
2022/06/20 11:30:23;;;;;;;6.38;1.80;;;19.60;99.90;;;;;;4990877;28;20704;-48
2022/06/20 11:34:00;;;;;;;8.50;1.95;;;19.50;99.90;;;;;;4990527;28;20499;-51
2022/06/20 11:36:14;;;;;;;6.65;1.73;;;19.20;99.90;;;;;;4917665;29;20313;-48
2022/06/20 11:38:58;;;;;;;8.32;2.10;;;19.40;99.90;;;;;;4914074;29;20047;-47
2022/06/20 11:41:53;;;;;;;6.65;1.85;;;19.70;99.90;;;;;;4912834;29;20058;-48
2022/06/20 11:44:59;;;;;;;8.07;1.80;;;19.80;99.90;;;;;;4898322;29;20051;-49
2022/06/20 11:47:39;;;;;;;11.38;1.70;;;19.40;99.90;;;;;;4855541;29;20057;-46
2022/06/20 11:50:35;;;;;;;8.18;2.10;;;18.90;99.90;;;;;;4857058;29;20426;-46
2022/06/20 11:53:16;;;;;;;7.57;2.13;;;18.60;99.90;;;;;;4856419;29;20037;-47
2022/06/20 11:55:52;;;;;;;10.50;1.77;;;18.70;99.90;;;;;;4896688;29;20052;-47
2022/06/20 11:58:48;;;;;;;5.28;1.33;;;20.10;99.90;;;;;;4896144;29;20064;-46
2022/06/20 12:01:20;;;;;;;7.10;1.65;;;19.60;99.90;;;;;;4894785;29;20051;-49
2022/06/20 12:03:53;;;;;;;9.02;1.58;;;20.20;99.90;;;;;;4897121;29;20525;-48
2022/06/20 12:06:31;;;;;;;7.00;1.50;;;20.20;99.90;;;;;;4896701;29;20060;-47
2022/06/20 12:09:35;;;;;;;7.47;1.60;;;19.90;99.90;;;;;;4896481;29;20682;-49
2022/06/20 12:12:13;;;;;;;5.15;1.50;;;19.50;99.90;;;;;;4906100;28;20462;-50
2022/06/20 12:15:04;;;;;;;6.05;1.02;;;19.80;99.90;;;;;;4950347;28;20133;-46
2022/06/20 12:17:36;;;;;;;11.27;1.40;;;20.10;99.90;;;;;;4913225;29;20258;-47
2022/06/20 12:23:21;;;;;;;3.88;1.13;;;20.40;99.90;;;;;;4923105;28;20117;-46
2022/06/20 12:26:16;;;;;;;6.80;1.75;;;20.80;99.90;;;;;;4949836;28;20031;-52
2022/06/20 12:28:45;;;;;;;7.32;1.60;;;20.50;99.90;;;;;;4949318;28;20063;-47
2022/06/20 12:31:14;;;;;;;4.70;1.40;;;19.80;99.90;;;;;;4951053;28;20050;-48
2022/06/20 12:33:53;;;;;;;5.85;1.80;;;19.50;99.90;;;;;;4950177;28;20046;-47
2022/06/20 12:36:57;;;;;;;7.90;1.38;;;19.90;99.90;;;;;;4952237;28;20104;-45
2022/06/20 12:39:27;;;;;;;6.20;1.83;;;19.50;99.90;;;;;;4877329;29;20199;-48
2022/06/20 12:42:05;;;;;;;6.90;1.90;;;19.40;99.90;;;;;;4873242;29;20052;-51
2022/06/20 12:44:49;;;;;;;6.40;1.50;;;19.50;99.90;;;;;;4876436;29;20059;-49
2022/06/20 12:47:36;;;;;;;6.13;1.40;;;18.80;99.90;;;;;;4873331;29;20078;-48
2022/06/20 12:50:20;;;;;;;7.30;1.80;;;18.90;99.90;;;;;;4893287;29;20103;-45
2022/06/20 12:52:45;;;;;;;6.43;1.48;;;18.80;99.90;;;;;;4893634;29;20040;-48
2022/06/20 12:55:35;;;;;;;10.55;2.20;;;18.80;99.90;;;;;;4956963;28;20061;-51
2022/06/20 12:58:19;;;;;;;6.15;2.03;;;19.30;99.90;;;;;;4972135;28;20046;-51
2022/06/20 13:01:16;;;;;;;6.65;1.33;;;20.10;99.90;;;;;;4955061;28;20134;-49
2022/06/20 13:04:03;;;;;;;7.53;1.60;;;20.10;99.90;;;;;;4951924;28;20579;-48
2022/06/20 13:06:53;;;;;;;5.00;1.60;;;20.00;99.90;;;;;;4951102;28;20131;-46
2022/06/20 13:09:33;;;;;;;5.35;1.40;;;19.80;99.90;;;;;;4951733;28;20050;-47
2022/06/20 13:12:20;;;;;;;5.75;1.50;;;19.70;99.90;;;;;;4952004;28;20419;-49
2022/06/20 13:14:51;;;;;;;8.70;1.50;;;19.70;99.90;;;;;;4952037;28;20043;-48
2022/06/20 13:17:38;;;;;;;7.03;1.90;;;19.40;99.90;;;;;;5025124;28;20045;-49
2022/06/20 13:20:25;;;;;;;6.95;1.67;;;19.30;99.90;;;;;;5030915;28;20041;-46
2022/06/20 13:23:26;;;;;;;6.15;1.63;;;18.90;99.90;;;;;;5030186;28;20406;-51
2022/06/20 13:26:16;;;;;;;7.72;1.55;;;19.00;99.90;;;;;;4990756;28;20048;-51
2022/06/20 13:29:01;;;;;;;5.30;1.50;;;19.10;99.90;;;;;;4987912;28;20060;-49
2022/06/20 13:31:37;;;;;;;5.10;1.70;;;18.30;99.90;;;;;;4990679;28;20038;-46
2022/06/20 13:34:31;;;;;;;4.55;1.70;;;18.50;99.90;;;;;;4988312;28;20053;-50
2022/06/20 13:37:25;;;;;;;7.90;2.35;;;18.50;99.90;;;;;;4988631;28;20050;-49
2022/06/20 13:39:56;;;;;;;8.18;1.70;;;18.70;99.90;;;;;;4982130;28;20064;-46
2022/06/20 13:42:43;;;;;;;6.63;1.98;;;18.90;99.90;;;;;;4975991;28;20129;-48
2022/06/20 13:45:24;;;;;;;4.45;1.60;;;18.90;99.90;;;;;;4989212;28;20044;-49
2022/06/20 13:48:37;;;;;;;7.75;2.33;;;19.50;99.90;;;;;;4988443;28;21210;-49
2022/06/20 13:51:50;;;;;;;9.05;1.50;;;18.40;99.90;;;;;;4987439;28;20053;-47
2022/06/20 13:54:43;;;;;;;6.22;1.83;;;18.60;99.90;;;;;;4931590;28;20047;-45
2022/06/20 13:57:27;;;;;;;9.77;1.42;;;18.40;99.90;;;;;;4931048;28;20087;-48